Time;durP1;ratioP1;P1;durP2;ratioP2;P2;SDS_P1;SDS_P2;PMS_P1;PMS_P2;Temp;Humidity;BMP_temperature;BMP_pressure;BME280_temperature;BME280_humidity;BME280_pressure;Samples;Min_cycle;Max_cycle;Signal;HPM_P1;HPM_P2
2023/03/06 00:01:39;;;;;;;19.55;10.55;;;;;;;;;;10445186;28;20444;-76
2023/03/06 00:06:39;;;;;;;22.30;11.40;;;;;;;;;;10428690;28;20430;-72
2023/03/06 00:11:40;;;;;;;27.63;12.18;;;;;;;;;;10430031;28;20371;-75
2023/03/06 00:16:40;;;;;;;25.27;11.52;;;;;;;;;;10445673;28;20041;-74
2023/03/06 00:21:40;;;;;;;23.13;11.82;;;;;;;;;;10428651;28;20031;-72
2023/03/06 00:26:41;;;;;;;40.20;13.75;;;;;;;;;;10429127;28;20036;-73
2023/03/06 00:31:45;;;;;;;26.80;12.73;;;;;;;;;;10428787;28;20445;-74
2023/03/06 00:36:46;;;;;;;29.17;12.75;;;;;;;;;;10428380;28;20013;-77
2023/03/06 00:41:46;;;;;;;29.48;12.48;;;;;;;;;;10428301;28;20032;-72
2023/03/06 00:46:47;;;;;;;24.55;11.95;;;;;;;;;;10428323;28;20079;-74
2023/03/06 00:51:47;;;;;;;25.75;12.15;;;;;;;;;;10446828;28;20029;-72
2023/03/06 00:56:48;;;;;;;27.27;12.55;;;;;;;;;;10445435;28;20508;-75
2023/03/06 01:01:48;;;;;;;28.13;11.83;;;;;;;;;;10427423;28;20486;-71
2023/03/06 01:06:48;;;;;;;27.50;12.35;;;;;;;;;;10427786;28;20394;-72
2023/03/06 01:11:49;;;;;;;25.57;12.13;;;;;;;;;;10445353;28;20859;-71
2023/03/06 01:16:49;;;;;;;23.50;10.27;;;;;;;;;;10426726;28;20049;-73
2023/03/06 01:21:49;;;;;;;26.23;11.43;;;;;;;;;;10426391;28;20037;-73
2023/03/06 01:26:50;;;;;;;23.20;11.65;;;;;;;;;;10444203;28;20029;-72
2023/03/06 01:31:51;;;;;;;26.75;11.52;;;;;;;;;;10426966;28;20025;-75
2023/03/06 01:36:51;;;;;;;26.02;10.93;;;;;;;;;;10426567;28;20573;-72
2023/03/06 01:41:51;;;;;;;22.30;11.43;;;;;;;;;;10425824;28;20033;-73
2023/03/06 01:46:51;;;;;;;24.42;12.18;;;;;;;;;;10426135;28;20176;-74
2023/03/06 01:51:55;;;;;;;25.27;11.40;;;;;;;;;;10425625;28;20484;-74
2023/03/06 01:56:57;;;;;;;22.65;10.48;;;;;;;;;;10395006;28;20108;-73
2023/03/06 02:02:00;;;;;;;26.27;12.50;;;;;;;;;;10425798;28;20042;-77
2023/03/06 02:07:03;;;;;;;26.33;13.02;;;;;;;;;;10442807;28;20047;-73
2023/03/06 02:12:08;;;;;;;28.48;12.45;;;;;;;;;;10425512;28;20482;-76
2023/03/06 02:17:10;;;;;;;28.00;12.02;;;;;;;;;;10426696;28;20069;-71
2023/03/06 02:22:10;;;;;;;30.65;13.25;;;;;;;;;;10428656;28;20033;-75
2023/03/06 02:27:13;;;;;;;36.55;17.08;;;;;;;;;;10433891;28;20028;-78
2023/03/06 02:32:13;;;;;;;30.23;14.07;;;;;;;;;;10451462;28;20032;-76
2023/03/06 02:37:13;;;;;;;34.07;16.67;;;;;;;;;;10433323;28;20028;-73
2023/03/06 02:42:18;;;;;;;34.47;16.10;;;;;;;;;;10449860;28;20714;-74
2023/03/06 02:47:18;;;;;;;31.52;16.45;;;;;;;;;;10433472;28;20029;-76
2023/03/06 02:52:18;;;;;;;36.10;16.77;;;;;;;;;;10433239;28;20413;-77
2023/03/06 02:57:19;;;;;;;31.07;17.10;;;;;;;;;;10432489;28;20079;-73
2023/03/06 03:02:19;;;;;;;34.97;16.90;;;;;;;;;;10451051;28;20039;-71
2023/03/06 03:07:19;;;;;;;31.75;16.15;;;;;;;;;;10432138;28;20021;-73
2023/03/06 03:12:21;;;;;;;39.75;18.17;;;;;;;;;;10449811;28;20035;-72
2023/03/06 03:17:21;;;;;;;40.88;18.52;;;;;;;;;;10431439;28;20144;-74
2023/03/06 03:22:22;;;;;;;34.72;14.77;;;;;;;;;;10415252;28;20063;-75
2023/03/06 03:27:22;;;;;;;38.20;16.55;;;;;;;;;;10432449;28;20033;-73
2023/03/06 03:32:22;;;;;;;31.55;16.00;;;;;;;;;;10413742;28;20111;-72
2023/03/06 03:37:23;;;;;;;36.00;16.92;;;;;;;;;;10430455;28;20040;-73
2023/03/06 03:42:23;;;;;;;33.05;15.68;;;;;;;;;;10430909;28;20021;-72
2023/03/06 03:47:23;;;;;;;41.97;16.48;;;;;;;;;;10430624;28;20033;-73
2023/03/06 03:52:25;;;;;;;32.03;14.45;;;;;;;;;;10430195;28;20041;-75
2023/03/06 03:57:25;;;;;;;36.90;15.43;;;;;;;;;;10430078;28;20028;-75
2023/03/06 04:02:25;;;;;;;32.90;15.93;;;;;;;;;;10448008;28;20040;-71
2023/03/06 04:07:25;;;;;;;33.05;16.38;;;;;;;;;;10429908;28;20036;-71
2023/03/06 04:12:26;;;;;;;33.45;16.98;;;;;;;;;;10413334;28;20174;-73
2023/03/06 04:17:26;;;;;;;31.23;16.17;;;;;;;;;;10429084;28;20049;-78
2023/03/06 04:22:26;;;;;;;35.17;15.95;;;;;;;;;;10446295;28;20517;-71
2023/03/06 04:27:27;;;;;;;33.85;16.52;;;;;;;;;;10428985;28;20482;-72
2023/03/06 04:32:27;;;;;;;30.60;15.30;;;;;;;;;;10428825;28;20029;-72
2023/03/06 04:37:28;;;;;;;35.03;16.48;;;;;;;;;;10428249;28;20032;-72
2023/03/06 04:42:28;;;;;;;33.70;17.10;;;;;;;;;;10450609;28;20039;-71
2023/03/06 04:47:29;;;;;;;34.10;15.07;;;;;;;;;;10426720;28;20031;-74
2023/03/06 04:52:29;;;;;;;31.00;16.45;;;;;;;;;;10428322;28;20021;-74
2023/03/06 04:57:29;;;;;;;34.90;16.45;;;;;;;;;;10444259;28;20024;-78
2023/03/06 05:02:29;;;;;;;30.13;14.57;;;;;;;;;;10428018;28;20021;-75
2023/03/06 05:07:30;;;;;;;33.95;16.02;;;;;;;;;;10427468;28;20527;-72
2023/03/06 05:12:30;;;;;;;29.08;15.10;;;;;;;;;;10426054;28;20546;-72
2023/03/06 05:17:30;;;;;;;32.92;13.38;;;;;;;;;;10442680;28;20099;-77
2023/03/06 05:22:32;;;;;;;27.30;15.40;;;;;;;;;;10425812;28;20029;-73
2023/03/06 05:27:33;;;;;;;30.63;13.50;;;;;;;;;;10425544;28;20063;-74
2023/03/06 05:32:33;;;;;;;27.85;14.32;;;;;;;;;;10427255;28;20139;-77
2023/03/06 05:37:33;;;;;;;32.03;12.88;;;;;;;;;;10425615;28;20402;-76
2023/03/06 05:42:34;;;;;;;24.30;13.50;;;;;;;;;;10434637;28;20032;-78
2023/03/06 05:47:34;;;;;;;24.75;13.93;;;;;;;;;;10444467;28;20486;-74
2023/03/06 05:52:35;;;;;;;34.03;14.90;;;;;;;;;;10443803;28;20024;-74
2023/03/06 05:57:35;;;;;;;28.35;14.07;;;;;;;;;;10424845;28;20021;-78
2023/03/06 06:02:35;;;;;;;23.38;12.25;;;;;;;;;;10432335;28;20415;-73
2023/03/06 06:07:35;;;;;;;27.00;13.32;;;;;;;;;;10436850;28;20029;-75
2023/03/06 06:12:36;;;;;;;24.80;13.25;;;;;;;;;;10419475;28;20052;-76
2023/03/06 06:17:36;;;;;;;23.85;13.20;;;;;;;;;;10431109;28;20045;-75
2023/03/06 06:22:37;;;;;;;29.40;14.48;;;;;;;;;;10422171;28;20027;-79
2023/03/06 06:27:37;;;;;;;25.77;13.77;;;;;;;;;;10424080;28;20462;-74
2023/03/06 06:32:37;;;;;;;28.65;13.80;;;;;;;;;;10463890;28;20028;-78
2023/03/06 06:37:37;;;;;;;35.97;16.67;;;;;;;;;;10436150;28;20017;-73
2023/03/06 06:42:38;;;;;;;30.73;15.45;;;;;;;;;;10424577;28;20027;-78
2023/03/06 06:47:42;;;;;;;35.63;15.02;;;;;;;;;;10441673;28;20379;-73
2023/03/06 06:52:42;;;;;;;33.80;14.02;;;;;;;;;;10440713;28;20025;-75
2023/03/06 06:57:42;;;;;;;26.42;14.25;;;;;;;;;;10423528;28;20474;-75
2023/03/06 07:02:43;;;;;;;25.53;12.00;;;;;;;;;;10423035;28;20025;-73
2023/03/06 07:07:43;;;;;;;21.80;12.35;;;;;;;;;;10424313;28;20025;-72
2023/03/06 07:12:44;;;;;;;30.27;14.35;;;;;;;;;;10449079;28;20031;-73
2023/03/06 07:17:44;;;;;;;29.70;12.30;;;;;;;;;;10430623;28;20045;-74
2023/03/06 07:22:44;;;;;;;23.33;12.38;;;;;;;;;;10450843;28;20029;-74
2023/03/06 07:27:45;;;;;;;23.08;12.07;;;;;;;;;;10431058;28;20031;-72
2023/03/06 07:32:45;;;;;;;38.58;12.02;;;;;;;;;;10430105;28;20028;-73
2023/03/06 07:37:45;;;;;;;17.02;9.85;;;;;;;;;;10448286;28;20020;-74
2023/03/06 07:42:45;;;;;;;19.20;11.10;;;;;;;;;;10424738;28;20111;-74
2023/03/06 07:47:48;;;;;;;29.40;12.37;;;;;;;;;;10440858;28;20024;-73
2023/03/06 07:52:48;;;;;;;36.22;13.40;;;;;;;;;;10443765;28;20034;-72
2023/03/06 07:57:50;;;;;;;30.45;14.95;;;;;;;;;;10453508;28;20017;-73
2023/03/06 08:02:50;;;;;;;23.88;12.55;;;;;;;;;;10429799;28;20024;-72
2023/03/06 08:07:50;;;;;;;29.23;11.90;;;;;;;;;;10429141;28;20028;-72
2023/03/06 08:12:51;;;;;;;23.95;12.90;;;;;;;;;;10429181;28;20025;-72
2023/03/06 08:17:51;;;;;;;28.83;12.93;;;;;;;;;;10441648;28;20058;-74
2023/03/06 08:22:52;;;;;;;26.83;13.13;;;;;;;;;;10441440;28;20140;-74
2023/03/06 08:27:52;;;;;;;31.23;13.35;;;;;;;;;;10428675;28;20013;-74
2023/03/06 08:32:52;;;;;;;28.03;13.90;;;;;;;;;;10428883;28;20036;-74
2023/03/06 08:37:52;;;;;;;32.58;13.70;;;;;;;;;;10428174;28;20413;-72
2023/03/06 08:42:53;;;;;;;25.53;11.20;;;;;;;;;;10445894;28;20471;-73
2023/03/06 08:47:53;;;;;;;25.63;11.80;;;;;;;;;;10444640;28;20016;-77
2023/03/06 08:52:53;;;;;;;22.25;10.75;;;;;;;;;;10458426;28;20036;-77
2023/03/06 08:57:54;;;;;;;23.73;11.90;;;;;;;;;;10441285;28;20044;-72
2023/03/06 09:02:54;;;;;;;26.97;11.83;;;;;;;;;;10442308;28;20046;-73
2023/03/06 09:07:55;;;;;;;25.85;13.05;;;;;;;;;;10427151;28;20499;-73
2023/03/06 09:12:55;;;;;;;31.50;12.88;;;;;;;;;;10426701;28;20021;-73
2023/03/06 09:17:55;;;;;;;27.77;12.45;;;;;;;;;;10443877;28;20048;-73
2023/03/06 09:22:55;;;;;;;28.63;13.30;;;;;;;;;;10426233;28;20445;-75
2023/03/06 09:27:56;;;;;;;28.15;13.98;;;;;;;;;;10443870;28;20478;-73
2023/03/06 09:32:56;;;;;;;27.35;12.38;;;;;;;;;;10425480;28;20024;-73
2023/03/06 09:37:56;;;;;;;28.45;14.65;;;;;;;;;;10454703;28;20107;-74
2023/03/06 09:42:57;;;;;;;33.47;14.57;;;;;;;;;;10434005;28;20047;-73
2023/03/06 09:48:03;;;;;;;29.42;12.02;;;;;;;;;;10425092;28;20029;-74
2023/03/06 09:53:15;;;;;;;29.05;12.77;;;;;;;;;;10408910;28;20067;-74
2023/03/06 09:58:17;;;;;;;22.27;11.93;;;;;;;;;;10425176;28;20023;-75
2023/03/06 10:03:34;;;;;;;29.38;11.32;;;;;;;;;;10424771;28;20025;-74
2023/03/06 10:08:40;;;;;;;25.65;12.77;;;;;;;;;;10426276;28;20124;-73
2023/03/06 10:13:40;;;;;;;27.02;12.13;;;;;;;;;;10456397;28;20087;-74
2023/03/06 10:18:40;;;;;;;19.27;10.77;;;;;;;;;;10408647;28;20549;-72
2023/03/06 10:23:54;;;;;;;21.35;10.85;;;;;;;;;;10442249;28;20044;-74
2023/03/06 10:29:15;;;;;;;18.80;8.85;;;;;;;;;;10441316;28;20422;-72
2023/03/06 10:34:29;;;;;;;19.25;9.25;;;;;;;;;;10424086;28;20098;-78
2023/03/06 10:39:29;;;;;;;17.45;9.10;;;;;;;;;;10442284;28;20033;-74
2023/03/06 10:44:30;;;;;;;20.25;9.13;;;;;;;;;;10449748;28;20021;-73
2023/03/06 10:49:34;;;;;;;14.70;7.43;;;;;;;;;;10461066;28;20170;-74
2023/03/06 10:54:36;;;;;;;17.23;7.78;;;;;;;;;;10448683;28;20059;-77
2023/03/06 10:59:48;;;;;;;11.50;6.32;;;;;;;;;;10432116;28;20036;-72
2023/03/06 11:04:51;;;;;;;16.65;7.00;;;;;;;;;;10432134;28;20103;-73
2023/03/06 11:09:57;;;;;;;21.80;8.88;;;;;;;;;;10447711;28;20490;-73
2023/03/06 11:15:13;;;;;;;14.47;8.33;;;;;;;;;;10448954;28;20057;-74
2023/03/06 11:20:13;;;;;;;21.45;7.80;;;;;;;;;;10461555;28;20145;-75
2023/03/06 11:25:15;;;;;;;22.48;9.52;;;;;;;;;;10462361;28;20549;-72
2023/03/06 11:30:41;;;;;;;20.17;9.23;;;;;;;;;;10447354;28;20482;-74
2023/03/06 11:35:50;;;;;;;18.30;7.85;;;;;;;;;;10442129;28;20056;-74
2023/03/06 11:40:56;;;;;;;18.33;8.20;;;;;;;;;;10450508;28;20032;-74
2023/03/06 11:45:56;;;;;;;15.20;8.13;;;;;;;;;;10430095;28;20028;-73
2023/03/06 11:51:05;;;;;;;13.60;7.75;;;;;;;;;;10430516;28;20219;-75
2023/03/06 11:56:06;;;;;;;18.52;8.73;;;;;;;;;;10428198;28;20032;-75
2023/03/06 12:01:06;;;;;;;20.13;7.90;;;;;;;;;;10419906;28;20028;-73
2023/03/06 12:06:06;;;;;;;19.80;8.73;;;;;;;;;;10459217;28;20446;-75
2023/03/06 12:11:07;;;;;;;16.57;8.20;;;;;;;;;;10452887;28;20021;-72
2023/03/06 12:16:26;;;;;;;19.70;6.85;;;;;;;;;;10428587;28;20442;-74
2023/03/06 12:21:26;;;;;;;14.40;6.90;;;;;;;;;;10465779;28;20032;-74
2023/03/06 12:26:45;;;;;;;14.83;7.43;;;;;;;;;;10467181;28;20025;-75
2023/03/06 12:31:51;;;;;;;28.20;8.25;;;;;;;;;;10444655;28;20029;-79
2023/03/06 12:36:52;;;;;;;12.75;6.85;;;;;;;;;;10427833;28;20056;-75
2023/03/06 12:41:57;;;;;;;18.63;7.50;;;;;;;;;;10428203;28;20036;-76
2023/03/06 12:47:16;;;;;;;28.73;9.93;;;;;;;;;;10445681;28;20426;-77
2023/03/06 12:52:23;;;;;;;13.10;7.25;;;;;;;;;;10440021;28;20140;-76
2023/03/06 12:57:24;;;;;;;19.02;7.53;;;;;;;;;;10427294;28;20078;-80
2023/03/06 13:02:24;;;;;;;12.38;6.35;;;;;;;;;;10427377;28;20169;-78
2023/03/06 13:07:30;;;;;;;13.98;5.50;;;;;;;;;;10426711;28;20482;-77
2023/03/06 13:12:48;;;;;;;11.98;6.22;;;;;;;;;;10426644;28;20036;-80
2023/03/06 13:17:49;;;;;;;7.05;4.32;;;;;;;;;;10408041;28;20534;-76
2023/03/06 13:22:49;;;;;;;8.95;4.55;;;;;;;;;;10422909;28;20036;-73
2023/03/06 13:27:52;;;;;;;9.68;4.63;;;;;;;;;;10422344;28;20025;-75
2023/03/06 13:32:53;;;;;;;8.75;4.88;;;;;;;;;;10419385;28;20356;-73
2023/03/06 13:37:54;;;;;;;10.98;4.70;;;;;;;;;;10425436;28;20033;-75
2023/03/06 13:42:54;;;;;;;9.65;3.97;;;;;;;;;;10397142;28;20028;-72
2023/03/06 13:47:55;;;;;;;10.23;4.10;;;;;;;;;;10405335;28;20029;-73
2023/03/06 13:53:01;;;;;;;5.97;3.60;;;;;;;;;;10399186;28;20025;-72
2023/03/06 13:58:15;;;;;;;9.63;3.42;;;;;;;;;;10408772;28;20112;-72
2023/03/06 14:03:27;;;;;;;6.93;3.30;;;;;;;;;;10404996;28;20037;-76
2023/03/06 14:08:30;;;;;;;6.18;3.10;;;;;;;;;;10435849;28;20072;-75
2023/03/06 14:13:35;;;;;;;7.28;2.58;;;;;;;;;;10440102;28;20036;-76
2023/03/06 14:18:37;;;;;;;5.75;2.95;;;;;;;;;;10421401;28;20068;-79
2023/03/06 14:23:42;;;;;;;6.82;2.47;;;;;;;;;;10441150;28;20712;-78
2023/03/06 14:28:59;;;;;;;4.45;2.50;;;;;;;;;;10412948;28;20037;-80
2023/03/06 14:34:01;;;;;;;5.85;3.63;;;;;;;;;;10421760;28;20029;-74
2023/03/06 14:39:06;;;;;;;6.30;4.03;;;;;;;;;;10421976;28;20328;-75
2023/03/06 14:44:18;;;;;;;7.00;4.20;;;;;;;;;;10440577;28;20454;-75
2023/03/06 14:49:19;;;;;;;10.77;4.95;;;;;;;;;;10419694;28;20029;-74
2023/03/06 14:54:40;;;;;;;12.40;5.40;;;;;;;;;;10418616;28;20017;-73
2023/03/06 14:59:43;;;;;;;7.72;4.10;;;;;;;;;;10435175;28;20487;-76
2023/03/06 15:04:45;;;;;;;9.30;4.75;;;;;;;;;;10423268;28;20116;-74
2023/03/06 15:09:47;;;;;;;7.43;4.15;;;;;;;;;;10419109;28;20032;-74
2023/03/06 15:14:55;;;;;;;11.10;4.60;;;;;;;;;;10396735;28;20045;-74
2023/03/06 15:19:57;;;;;;;10.13;4.80;;;;;;;;;;10414578;28;20027;-75
2023/03/06 15:25:13;;;;;;;8.65;4.30;;;;;;;;;;10428919;28;20033;-73
2023/03/06 15:30:20;;;;;;;8.60;4.03;;;;;;;;;;10452830;28;20553;-75
2023/03/06 15:35:31;;;;;;;7.53;4.32;;;;;;;;;;10453148;28;20123;-79
2023/03/06 15:40:32;;;;;;;10.60;4.18;;;;;;;;;;10444575;28;20044;-75
2023/03/06 15:45:33;;;;;;;7.47;4.05;;;;;;;;;;10427189;28;20147;-80
2023/03/06 15:50:34;;;;;;;7.65;3.88;;;;;;;;;;10425995;28;20025;-72
2023/03/06 15:55:35;;;;;;;5.32;3.47;;;;;;;;;;10412889;28;20515;-78
2023/03/06 16:00:37;;;;;;;6.43;3.50;;;;;;;;;;10441059;28;20017;-78
2023/03/06 16:05:37;;;;;;;4.57;3.00;;;;;;;;;;10453670;28;20021;-77
2023/03/06 16:10:39;;;;;;;19.03;7.50;;;;;;;;;;10429346;28;20017;-80
2023/03/06 16:15:43;;;;;;;9.38;4.22;;;;;;;;;;10446394;28;20801;-74
2023/03/06 16:20:44;;;;;;;8.65;3.30;;;;;;;;;;10428055;28;20017;-74
2023/03/06 16:25:46;;;;;;;8.07;4.25;;;;;;;;;;10447515;28;20494;-74
2023/03/06 16:30:46;;;;;;;5.93;3.75;;;;;;;;;;10445598;28;20036;-73
2023/03/06 16:35:47;;;;;;;5.57;3.50;;;;;;;;;;10443381;28;20028;-76
2023/03/06 16:40:47;;;;;;;4.63;2.83;;;;;;;;;;10427374;28;20013;-75
2023/03/06 16:45:47;;;;;;;9.68;3.20;;;;;;;;;;10430991;28;20428;-72
2023/03/06 16:50:47;;;;;;;6.40;3.50;;;;;;;;;;10412541;28;20025;-74
2023/03/06 16:55:48;;;;;;;10.88;3.92;;;;;;;;;;10479700;23;20098;-74
2023/03/06 17:00:48;;;;;;;7.13;3.50;;;;;;;;;;10411773;28;20040;-74
2023/03/06 17:05:49;;;;;;;8.50;3.55;;;;;;;;;;10403729;28;20473;-74
2023/03/06 17:10:50;;;;;;;5.80;2.92;;;;;;;;;;10432629;28;20023;-73
2023/03/06 17:15:55;;;;;;;6.18;2.70;;;;;;;;;;10459953;28;20021;-78
2023/03/06 17:20:55;;;;;;;4.07;2.85;;;;;;;;;;10476669;28;20021;-78
2023/03/06 17:26:12;;;;;;;6.38;3.33;;;;;;;;;;10439225;28;20017;-81
2023/03/06 17:31:14;;;;;;;12.27;4.18;;;;;;;;;;10422795;28;20017;-79
2023/03/06 17:36:15;;;;;;;8.23;4.47;;;;;;;;;;10422739;28;20605;-71
2023/03/06 17:41:15;;;;;;;8.07;3.88;;;;;;;;;;10419917;28;20024;-78
2023/03/06 17:46:17;;;;;;;9.70;4.43;;;;;;;;;;10408670;28;20044;-75
2023/03/06 17:51:18;;;;;;;10.65;4.30;;;;;;;;;;10430447;28;20081;-75
2023/03/06 17:56:19;;;;;;;8.00;4.07;;;;;;;;;;10408957;28;20099;-78
2023/03/06 18:01:21;;;;;;;11.03;4.47;;;;;;;;;;10401377;28;20044;-76
